createdAt,value
2023-02-22T00:01:08.500Z,95750.78
2023-02-22T00:03:36.132Z,95755.41
2023-02-22T00:06:05.962Z,95747.34
2023-02-22T00:08:36.435Z,95744.25
2023-02-22T00:11:10.749Z,95739.88
2023-02-22T00:13:39.503Z,95744.06
2023-02-22T00:16:07.707Z,95720.59
2023-02-22T00:18:35.374Z,95735.84
2023-02-22T00:21:03.098Z,95741.13
2023-02-22T00:23:32.177Z,95748.09
2023-02-22T00:26:01.489Z,95741.25
2023-02-22T00:28:31.001Z,95723.91
2023-02-22T00:31:00.137Z,95736.44
2023-02-22T00:33:27.931Z,95738.31
2023-02-22T00:35:55.579Z,95725.63
2023-02-22T00:38:23.251Z,95735.19
2023-02-22T00:40:51.225Z,95740.78
2023-02-22T00:43:18.917Z,95735.19
2023-02-22T00:45:49.550Z,95746.53
2023-02-22T00:48:18.645Z,95748.53
2023-02-22T00:50:48.871Z,95752.13
2023-02-22T00:53:16.687Z,95755.69
2023-02-22T00:55:44.291Z,95751.25
2023-02-22T00:58:13.104Z,95769.66
2023-02-22T01:00:42.802Z,95763.59
2023-02-22T01:03:12.337Z,95762.84
2023-02-22T01:05:39.931Z,95767.94
2023-02-22T01:08:10.298Z,95772.13
2023-02-22T01:10:39.490Z,95773.22
2023-02-22T01:13:09.572Z,95778.81
2023-02-22T01:15:39.724Z,95781.31
2023-02-22T01:18:08.070Z,95770.03
2023-02-22T01:20:36.535Z,95775.44
2023-02-22T01:23:08.179Z,95783.78
2023-02-22T01:25:36.396Z,95776.53
2023-02-22T01:28:06.185Z,95773.91
2023-02-22T01:30:36.367Z,95775.16
2023-02-22T01:33:06.461Z,95779.66
2023-02-22T01:35:43.319Z,95788.19
2023-02-22T01:38:11.322Z,95787.41
2023-02-22T01:40:42.550Z,95783.88
2023-02-22T01:43:22.693Z,95785.09
2023-02-22T01:46:05.688Z,95785.88
2023-02-22T01:48:46.341Z,95772.88
2023-02-22T01:51:24.198Z,95777.06
2023-02-22T01:53:54.550Z,95777.22
2023-02-22T01:56:25.763Z,95804.16
2023-02-22T01:58:59.012Z,95808.03
2023-02-22T02:01:27.204Z,95809.75
2023-02-22T02:04:00.121Z,95795.81
2023-02-22T02:06:31.682Z,95798.91
2023-02-22T02:09:24.130Z,95814.56
2023-02-22T02:11:51.872Z,95823.59
2023-02-22T02:14:22.062Z,95843.72
2023-02-22T02:16:52.347Z,95846.38
2023-02-22T02:19:52.280Z,95862.16
2023-02-22T02:22:25.838Z,95868.50
2023-02-22T02:25:18.479Z,95865.25
2023-02-22T02:28:19.882Z,95873.44
2023-02-22T02:31:26.072Z,95868.94
2023-02-22T02:34:22.239Z,95873.44
2023-02-22T02:37:12.850Z,95874.03
2023-02-22T02:40:06.674Z,95884.72
2023-02-22T02:42:42.588Z,95903.44
2023-02-22T02:45:16.448Z,95900.19
2023-02-22T02:47:47.913Z,95914.59
2023-02-22T02:50:30.000Z,95902.94
2023-02-22T02:53:03.461Z,95908.69
2023-02-22T02:55:33.150Z,95915.16
2023-02-22T02:58:01.158Z,95910.84
2023-02-22T03:00:39.648Z,95916.72
2023-02-22T03:03:25.322Z,95906.22
2023-02-22T03:06:18.163Z,95912.25
2023-02-22T03:09:03.986Z,95919.84
2023-02-22T03:11:48.771Z,95908.69
2023-02-22T03:14:23.509Z,95896.31
2023-02-22T03:17:18.912Z,95882.53
2023-02-22T03:20:32.060Z,95889.19
2023-02-22T03:23:29.761Z,95864.59
2023-02-22T03:26:13.569Z,95868.94
2023-02-22T03:28:46.741Z,95881.78
2023-02-22T03:31:20.639Z,95873.59
2023-02-22T03:33:55.914Z,95889.53
2023-02-22T03:36:30.575Z,95886.91
2023-02-22T03:39:00.876Z,95880.41
2023-02-22T03:41:30.634Z,95879.50
2023-02-22T03:44:08.646Z,95896.50
2023-02-22T03:46:40.223Z,95896.53
2023-02-22T03:49:35.496Z,95915.38
2023-02-22T03:52:07.517Z,95899.44
2023-02-22T03:54:36.166Z,95917.81
2023-02-22T03:57:27.473Z,95920.56
2023-02-22T04:00:08.185Z,95920.88
2023-02-22T04:02:42.427Z,95935.34
2023-02-22T04:05:15.663Z,95949.19
2023-02-22T04:07:43.999Z,95949.72
2023-02-22T04:10:16.464Z,95943.91
2023-02-22T04:12:44.838Z,95934.25
2023-02-22T04:15:15.877Z,95941.22
2023-02-22T04:17:44.316Z,95953.00
2023-02-22T04:20:15.638Z,95922.88
2023-02-22T04:22:48.855Z,95939.94
2023-02-22T04:25:16.805Z,95924.00
2023-02-22T04:27:45.778Z,95923.22
2023-02-22T04:30:14.116Z,95929.72
2023-02-22T04:32:43.186Z,95941.66
2023-02-22T04:35:13.227Z,95940.25
2023-02-22T04:37:43.107Z,95942.69
2023-02-22T04:40:11.917Z,95929.19
2023-02-22T04:42:40.468Z,95916.34
2023-02-22T04:45:09.838Z,95912.91
2023-02-22T04:47:38.873Z,95922.31
2023-02-22T04:50:09.015Z,95924.06
2023-02-22T04:52:36.670Z,95929.59
2023-02-22T04:55:05.268Z,95938.78
2023-02-22T04:57:34.262Z,95923.97
2023-02-22T05:00:01.900Z,95912.88
2023-02-22T05:02:32.219Z,95915.06
2023-02-22T05:04:59.878Z,95918.31
2023-02-22T05:07:27.484Z,95893.16
2023-02-22T05:09:55.094Z,95923.28
2023-02-22T05:12:22.633Z,95929.88
2023-02-22T05:14:50.199Z,95941.44
2023-02-22T05:17:17.680Z,95938.50
2023-02-22T05:19:45.144Z,95939.84
2023-02-22T05:22:12.750Z,95935.44
2023-02-22T05:24:40.277Z,95943.25
2023-02-22T05:27:07.910Z,95937.66
2023-02-22T05:29:35.507Z,95935.88
2023-02-22T05:32:03.184Z,95935.59
2023-02-22T05:34:31.283Z,95934.56
2023-02-22T05:36:59.174Z,95936.13
2023-02-22T05:39:26.778Z,95943.50
2023-02-22T05:41:54.452Z,95932.44
2023-02-22T05:44:22.032Z,95926.75
2023-02-22T05:46:49.615Z,95935.25
2023-02-22T05:49:17.251Z,95939.19
2023-02-22T05:51:44.749Z,95938.09
2023-02-22T05:54:12.248Z,95943.53
2023-02-22T05:56:39.843Z,95953.47
2023-02-22T05:59:07.406Z,95955.44
2023-02-22T06:01:35.103Z,95945.47
2023-02-22T06:04:02.817Z,95951.59
2023-02-22T06:06:30.321Z,95958.88
2023-02-22T06:08:57.893Z,95951.91
2023-02-22T06:11:25.380Z,95967.56
2023-02-22T06:13:53.883Z,95961.72
2023-02-22T06:16:22.639Z,95959.69
2023-02-22T06:18:50.637Z,95954.16
2023-02-22T06:21:18.527Z,95957.84
2023-02-22T06:23:46.252Z,95965.09
2023-02-22T06:26:17.396Z,95971.94
2023-02-22T06:28:48.494Z,95962.91
2023-02-22T06:31:16.387Z,95967.69
2023-02-22T06:33:44.136Z,95967.53
2023-02-22T06:36:11.796Z,95973.09
2023-02-22T06:38:39.398Z,95966.06
2023-02-22T06:41:06.913Z,95981.13
2023-02-22T06:43:34.415Z,95980.94
2023-02-22T06:46:02.070Z,95979.75
2023-02-22T06:48:29.738Z,95986.06
2023-02-22T06:50:57.255Z,95990.38
2023-02-22T06:53:24.994Z,95992.88
2023-02-22T06:55:55.146Z,95998.97
2023-02-22T06:58:22.807Z,95991.06
2023-02-22T07:00:50.385Z,95988.66
2023-02-22T07:03:18.043Z,95989.97
2023-02-22T07:05:45.797Z,95988.38
2023-02-22T07:08:13.894Z,95991.53
2023-02-22T07:10:41.472Z,95984.97
2023-02-22T07:13:09.719Z,95987.97
2023-02-22T07:15:37.333Z,95997.66
2023-02-22T07:18:05.060Z,95991.63
2023-02-22T07:20:32.897Z,95999.13
2023-02-22T07:23:01.574Z,95991.31
2023-02-22T07:25:29.251Z,95990.31
2023-02-22T07:27:56.983Z,95990.88
2023-02-22T07:30:34.441Z,95993.44
2023-02-22T07:33:05.528Z,95996.06
2023-02-22T07:35:37.007Z,95998.03
2023-02-22T07:38:08.677Z,95997.59
2023-02-22T07:40:37.844Z,95997.28
2023-02-22T07:43:14.904Z,96005.41
2023-02-22T07:45:42.526Z,96005.63
2023-02-22T07:48:12.913Z,95995.16
2023-02-22T07:50:41.801Z,95988.75
2023-02-22T07:53:15.712Z,95992.22
2023-02-22T07:55:43.892Z,95989.97
2023-02-22T07:58:15.466Z,95986.53
2023-02-22T08:00:44.463Z,95985.09
2023-02-22T08:03:14.007Z,95978.13
2023-02-22T08:05:45.311Z,95980.47
2023-02-22T08:08:14.935Z,95971.78
2023-02-22T08:10:43.105Z,95951.44
2023-02-22T08:13:11.171Z,95968.41
2023-02-22T08:15:40.652Z,95967.03
2023-02-22T08:18:11.318Z,95967.53
2023-02-22T08:20:40.822Z,95961.66
2023-02-22T08:23:09.927Z,95968.75
2023-02-22T08:25:37.896Z,95962.81
2023-02-22T08:28:07.980Z,95970.97
2023-02-22T08:30:38.311Z,95959.31
2023-02-22T08:33:07.879Z,95949.84
2023-02-22T08:35:35.713Z,95945.38
2023-02-22T08:38:06.156Z,95960.03
2023-02-22T08:40:36.820Z,95956.31
2023-02-22T08:43:05.250Z,95963.72
2023-02-22T08:45:32.924Z,95948.41
2023-02-22T08:48:00.470Z,95947.72
2023-02-22T08:50:31.189Z,95941.56
2023-02-22T08:53:01.179Z,95940.06
2023-02-22T08:55:32.879Z,95933.94
2023-02-22T08:58:03.314Z,95937.03
2023-02-22T09:00:33.555Z,95932.06
2023-02-22T09:03:02.509Z,95943.91
2023-02-22T09:05:31.537Z,95936.25
2023-02-22T09:08:00.207Z,95930.13
2023-02-22T09:10:31.042Z,95936.22
2023-02-22T09:13:01.460Z,95934.22
2023-02-22T09:15:29.614Z,95938.03
2023-02-22T09:17:57.495Z,95934.50
2023-02-22T09:20:25.900Z,95936.03
2023-02-22T09:22:55.056Z,95929.50
2023-02-22T09:25:23.478Z,95952.00
2023-02-22T09:27:52.942Z,95945.06
2023-02-22T09:30:32.450Z,95930.91
2023-02-22T09:33:13.115Z,95934.97
2023-02-22T09:35:48.404Z,95932.97
2023-02-22T09:38:25.157Z,95925.72
2023-02-22T09:40:58.084Z,95917.56
2023-02-22T09:44:11.247Z,95921.06
2023-02-22T09:46:46.116Z,95923.56
2023-02-22T09:49:30.030Z,95922.75
2023-02-22T09:52:13.888Z,95913.94
2023-02-22T09:54:46.000Z,95913.84
2023-02-22T09:57:20.495Z,95916.81
2023-02-22T10:00:13.389Z,95921.03
2023-02-22T10:03:21.810Z,95912.16
2023-02-22T10:05:59.305Z,95918.81
2023-02-22T10:08:33.674Z,95912.16
2023-02-22T10:11:13.390Z,95918.91
2023-02-22T10:13:52.938Z,95907.94
2023-02-22T10:16:31.744Z,95903.78
2023-02-22T10:19:13.720Z,95905.81
2023-02-22T10:22:11.503Z,95899.03
2023-02-22T10:24:39.986Z,95899.91
2023-02-22T10:27:20.989Z,95887.53
2023-02-22T10:30:25.044Z,95899.56
2023-02-22T10:33:03.743Z,95899.66
2023-02-22T10:35:35.925Z,95888.41
2023-02-22T10:38:15.196Z,95883.03
2023-02-22T10:40:51.028Z,95893.59
2023-02-22T10:43:18.658Z,95889.91
2023-02-22T10:45:46.276Z,95881.38
2023-02-22T10:48:18.906Z,95879.47
2023-02-22T10:50:48.155Z,95881.31
2023-02-22T10:53:16.148Z,95885.41
2023-02-22T10:56:05.638Z,95873.31
2023-02-22T10:58:50.593Z,95868.00
2023-02-22T11:01:21.314Z,95857.91
2023-02-22T11:03:59.099Z,95857.19
2023-02-22T11:06:26.901Z,95860.03
2023-02-22T11:09:15.295Z,95865.06
2023-02-22T11:11:46.351Z,95869.38
2023-02-22T11:14:27.028Z,95867.25
2023-02-22T11:16:57.740Z,95863.31
2023-02-22T11:19:31.052Z,95866.72
2023-02-22T11:22:16.982Z,95867.09
2023-02-22T11:25:07.764Z,95847.72
2023-02-22T11:27:40.847Z,95859.50
2023-02-22T11:30:23.636Z,95850.44
2023-02-22T11:32:56.116Z,95846.63
2023-02-22T11:35:29.589Z,95850.22
2023-02-22T11:38:17.367Z,95848.66
2023-02-22T11:40:45.879Z,95846.50
2023-02-22T11:43:19.212Z,95845.41
2023-02-22T11:46:06.358Z,95839.50
2023-02-22T11:48:39.404Z,95834.28
2023-02-22T11:51:14.546Z,95835.88
2023-02-22T11:54:19.777Z,95836.63
2023-02-22T11:56:51.716Z,95838.34
2023-02-22T11:59:38.770Z,95840.34
2023-02-22T12:02:09.767Z,95832.19
2023-02-22T12:04:50.236Z,95842.19
2023-02-22T12:07:53.433Z,95846.75
2023-02-22T12:10:41.489Z,95844.72
2023-02-22T12:13:30.339Z,95853.59
2023-02-22T12:16:19.842Z,95852.69
2023-02-22T12:19:15.602Z,95856.19
2023-02-22T12:21:47.276Z,95855.06
2023-02-22T12:24:23.866Z,95850.66
2023-02-22T12:26:59.065Z,95853.41
2023-02-22T12:29:37.916Z,95854.09
2023-02-22T12:32:12.968Z,95842.28
2023-02-22T12:34:43.550Z,95844.31
2023-02-22T12:37:28.363Z,95847.72
2023-02-22T12:40:09.921Z,95841.28
2023-02-22T12:43:08.129Z,95834.03
2023-02-22T12:46:03.257Z,95831.19
2023-02-22T12:48:35.751Z,95831.53
2023-02-22T12:51:22.207Z,95829.81
2023-02-22T12:54:02.552Z,95840.97
2023-02-22T12:56:48.486Z,95824.19
2023-02-22T12:59:26.863Z,95827.72
2023-02-22T13:02:01.104Z,95825.25
2023-02-22T13:04:32.211Z,95819.78
2023-02-22T13:07:18.969Z,95825.50
2023-02-22T13:09:55.605Z,95829.75
2023-02-22T13:12:52.407Z,95823.91
2023-02-22T13:15:26.150Z,95834.53
2023-02-22T13:18:10.868Z,95840.84
2023-02-22T13:21:01.731Z,95827.25
2023-02-22T13:23:51.226Z,95834.88
2023-02-22T13:26:26.161Z,95836.75
2023-02-22T13:29:09.088Z,95835.22
2023-02-22T13:32:12.472Z,95829.22
2023-02-22T13:35:01.529Z,95836.22
2023-02-22T13:37:57.091Z,95837.34
2023-02-22T13:40:43.209Z,95832.72
2023-02-22T13:43:47.581Z,95835.78
2023-02-22T13:46:46.088Z,95838.41
2023-02-22T13:49:32.306Z,95837.13
2023-02-22T13:52:14.351Z,95848.06
2023-02-22T13:54:47.341Z,95843.13
2023-02-22T13:57:24.130Z,95845.59
2023-02-22T14:00:16.424Z,95847.91
2023-02-22T14:03:15.004Z,95842.94
2023-02-22T14:05:45.648Z,95839.00
2023-02-22T14:08:19.421Z,95848.97
2023-02-22T14:11:01.297Z,95843.97
2023-02-22T14:13:33.709Z,95853.59
2023-02-22T14:16:01.256Z,95849.75
2023-02-22T14:18:42.455Z,95845.81
2023-02-22T14:21:18.472Z,95849.69
2023-02-22T14:24:06.583Z,95851.78
2023-02-22T14:26:39.800Z,95845.16
2023-02-22T14:29:10.610Z,95848.25
2023-02-22T14:31:41.465Z,95843.94
2023-02-22T14:34:12.188Z,95841.53
2023-02-22T14:36:55.198Z,95844.50
2023-02-22T14:39:38.729Z,95832.47
2023-02-22T14:42:14.764Z,95829.41
2023-02-22T14:45:03.440Z,95816.94
2023-02-22T14:48:01.697Z,95820.94
2023-02-22T14:50:46.171Z,95818.28
2023-02-22T14:53:13.796Z,95822.69
2023-02-22T14:55:52.157Z,95825.91
2023-02-22T14:58:23.897Z,95827.66
2023-02-22T15:00:57.460Z,95818.50
2023-02-22T15:03:37.748Z,95828.22
2023-02-22T15:06:20.330Z,95817.66
2023-02-22T15:08:49.713Z,95816.09
2023-02-22T15:11:36.037Z,95827.56
2023-02-22T15:14:25.167Z,95827.44
2023-02-22T15:16:57.140Z,95818.97
2023-02-22T15:19:28.469Z,95833.94
2023-02-22T15:21:58.756Z,95837.59
2023-02-22T15:24:31.844Z,95825.91
2023-02-22T15:27:13.163Z,95820.94
2023-02-22T15:29:44.862Z,95830.00
2023-02-22T15:32:19.794Z,95828.22
2023-02-22T15:34:47.443Z,95828.31
2023-02-22T15:37:25.793Z,95827.03
2023-02-22T15:39:59.798Z,95820.63
2023-02-22T15:42:29.796Z,95821.72
2023-02-22T15:44:58.373Z,95831.53
2023-02-22T15:47:29.719Z,95801.00
2023-02-22T15:50:17.654Z,95826.81
2023-02-22T15:53:23.535Z,95822.59
2023-02-22T15:56:00.533Z,95823.03
2023-02-22T15:58:30.349Z,95827.22
2023-02-22T16:01:14.521Z,95840.69
2023-02-22T16:03:47.714Z,95820.59
2023-02-22T16:06:28.875Z,95823.38
2023-02-22T16:08:59.284Z,95816.31
2023-02-22T16:11:32.719Z,95820.47
2023-02-22T16:14:05.209Z,95818.06
2023-02-22T16:16:37.076Z,95819.03
2023-02-22T16:19:42.623Z,95821.69
2023-02-22T16:22:35.429Z,95824.09
2023-02-22T16:25:16.986Z,95821.78
2023-02-22T16:27:53.055Z,95813.06
2023-02-22T16:30:37.202Z,95815.66
2023-02-22T16:33:10.378Z,95802.00
2023-02-22T16:35:38.037Z,95800.97
2023-02-22T16:38:09.904Z,95788.94
2023-02-22T16:40:44.942Z,95806.78
2023-02-22T16:43:15.718Z,95801.88
2023-02-22T16:45:43.596Z,95801.22
2023-02-22T16:48:21.802Z,95801.66
2023-02-22T16:50:51.465Z,95788.03
2023-02-22T16:53:22.001Z,95796.25
2023-02-22T16:55:52.202Z,95804.03
2023-02-22T16:58:20.340Z,95795.28
2023-02-22T17:00:48.026Z,95792.25
2023-02-22T17:03:18.318Z,95785.66
2023-02-22T17:05:45.991Z,95789.53
2023-02-22T17:08:13.600Z,95796.34
2023-02-22T17:10:41.267Z,95791.97
2023-02-22T17:13:22.187Z,95800.91
2023-02-22T17:15:52.159Z,95794.09
2023-02-22T17:18:23.692Z,95789.44
2023-02-22T17:20:52.961Z,95803.63
2023-02-22T17:23:21.433Z,95805.63
2023-02-22T17:25:54.971Z,95803.78
2023-02-22T17:28:25.167Z,95801.47
2023-02-22T17:30:54.646Z,95800.38
2023-02-22T17:33:27.978Z,95809.66
2023-02-22T17:35:58.989Z,95795.78
2023-02-22T17:38:30.537Z,95798.84
2023-02-22T17:41:00.020Z,95797.94
2023-02-22T17:43:30.747Z,95811.31
2023-02-22T17:45:58.375Z,95806.53
2023-02-22T17:48:27.185Z,95802.03
2023-02-22T17:50:55.161Z,95796.63
2023-02-22T17:53:25.142Z,95795.25
2023-02-22T17:55:53.192Z,95787.50
2023-02-22T17:58:20.762Z,95786.09
2023-02-22T18:00:50.946Z,95793.53
2023-02-22T18:03:21.975Z,95795.41
2023-02-22T18:05:51.031Z,95792.19
2023-02-22T18:08:20.110Z,95794.66
2023-02-22T18:10:52.499Z,95784.53
2023-02-22T18:13:20.947Z,95792.63
2023-02-22T18:15:49.057Z,95792.75
2023-02-22T18:18:18.088Z,95801.59
2023-02-22T18:20:47.826Z,95798.94
2023-02-22T18:23:17.851Z,95790.28
2023-02-22T18:26:03.850Z,95780.25
2023-02-22T18:28:40.552Z,95801.19
2023-02-22T18:31:16.426Z,95802.06
2023-02-22T18:33:50.135Z,95801.00
2023-02-22T18:36:23.521Z,95794.00
2023-02-22T18:38:55.744Z,95789.81
2023-02-22T18:41:28.693Z,95797.88
2023-02-22T18:43:59.286Z,95798.34
2023-02-22T18:46:28.068Z,95799.06
2023-02-22T18:48:57.030Z,95799.22
2023-02-22T18:51:25.853Z,95799.56
2023-02-22T18:53:58.034Z,95789.53
2023-02-22T18:56:30.223Z,95788.13
2023-02-22T18:59:01.426Z,95791.97
2023-02-22T19:01:30.415Z,95787.13
2023-02-22T19:03:58.160Z,95791.63
2023-02-22T19:06:25.735Z,95785.72
2023-02-22T19:08:54.084Z,95774.44
2023-02-22T19:14:23.948Z,95783.69
2023-02-22T19:16:52.269Z,95787.63
2023-02-22T19:19:29.068Z,95772.44
2023-02-22T19:22:00.193Z,95775.84
2023-02-22T19:24:27.762Z,95775.72
2023-02-22T19:26:57.840Z,95791.50
2023-02-22T19:29:25.562Z,95783.13
2023-02-22T19:31:54.059Z,95771.09
2023-02-22T19:34:24.152Z,95774.66
2023-02-22T19:36:51.657Z,95773.72
2023-02-22T19:41:48.798Z,95779.13
2023-02-22T19:44:16.328Z,95758.38
2023-02-22T19:46:44.277Z,95764.81
2023-02-22T19:49:12.333Z,95757.72
2023-02-22T19:51:40.175Z,95757.88
2023-02-22T19:54:09.324Z,95756.59
2023-02-22T19:56:36.873Z,95765.84
2023-02-22T19:59:14.164Z,95765.88
2023-02-22T20:01:44.682Z,95766.75
2023-02-22T20:04:18.710Z,95765.50
2023-02-22T20:06:47.503Z,95757.47
2023-02-22T20:09:18.354Z,95758.25
2023-02-22T20:11:47.884Z,95755.28
2023-02-22T20:14:23.719Z,95762.38
2023-02-22T20:16:56.336Z,95752.34
2023-02-22T20:19:24.875Z,95765.03
2023-02-22T20:21:53.365Z,95752.47
2023-02-22T20:24:20.907Z,95743.53
2023-02-22T20:26:50.208Z,95744.13
2023-02-22T20:29:18.261Z,95742.06
2023-02-22T20:31:49.926Z,95743.06
2023-02-22T20:34:17.545Z,95740.41
2023-02-22T20:36:45.512Z,95736.53
2023-02-22T20:39:14.596Z,95732.03
2023-02-22T20:41:43.880Z,95735.41
2023-02-22T20:44:14.578Z,95734.28
2023-02-22T20:46:42.355Z,95737.72
2023-02-22T20:49:12.973Z,95738.47
2023-02-22T20:51:42.162Z,95729.03
2023-02-22T20:54:12.493Z,95739.44
2023-02-22T20:56:43.302Z,95739.56
2023-02-22T20:59:15.932Z,95742.41
2023-02-22T21:01:43.594Z,95726.13
2023-02-22T21:04:12.158Z,95723.22
2023-02-22T21:06:40.663Z,95727.69
2023-02-22T21:09:13.387Z,95726.72
2023-02-22T21:11:41.142Z,95726.84
2023-02-22T21:14:10.331Z,95713.69
2023-02-22T21:16:38.073Z,95719.41
2023-02-22T21:19:07.603Z,95717.50
2023-02-22T21:21:36.601Z,95713.28
2023-02-22T21:24:04.447Z,95714.94
2023-02-22T21:26:34.391Z,95699.25
2023-02-22T21:29:05.082Z,95712.13
2023-02-22T21:31:34.556Z,95706.06
2023-02-22T21:34:02.471Z,95706.66
2023-02-22T21:36:30.131Z,95699.06
2023-02-22T21:39:08.613Z,95691.16
2023-02-22T21:41:39.733Z,95692.13
2023-02-22T21:44:08.252Z,95703.25
2023-02-22T21:46:35.967Z,95702.59
2023-02-22T21:49:03.625Z,95697.75
2023-02-22T21:51:32.900Z,95696.56
2023-02-22T21:54:02.536Z,95696.59
2023-02-22T21:56:34.660Z,95692.88
2023-02-22T21:59:15.012Z,95685.44
2023-02-22T22:01:50.264Z,95691.88
2023-02-22T22:04:21.151Z,95690.00
2023-02-22T22:06:51.697Z,95697.00
2023-02-22T22:09:20.753Z,95694.94
2023-02-22T22:11:53.824Z,95688.25
2023-02-22T22:14:24.070Z,95679.78
2023-02-22T22:16:55.071Z,95693.59
2023-02-22T22:19:23.208Z,95683.06
2023-02-22T22:21:53.785Z,95686.59
2023-02-22T22:24:23.042Z,95673.75
2023-02-22T22:26:55.034Z,95670.22
2023-02-22T22:29:25.322Z,95683.13
2023-02-22T22:31:53.392Z,95687.69
2023-02-22T22:34:24.523Z,95685.13
2023-02-22T22:36:52.056Z,95677.06
2023-02-22T22:39:21.399Z,95667.03
2023-02-22T22:41:49.191Z,95678.69
2023-02-22T22:44:22.552Z,95678.88
2023-02-22T22:46:55.069Z,95676.59
2023-02-22T22:49:25.526Z,95682.31
2023-02-22T22:51:53.864Z,95677.03
2023-02-22T22:54:21.509Z,95669.78
2023-02-22T22:56:49.086Z,95668.88
2023-02-22T22:59:16.740Z,95669.50
2023-02-22T23:01:45.093Z,95668.72
2023-02-22T23:04:16.702Z,95665.91
2023-02-22T23:06:52.794Z,95665.59
2023-02-22T23:09:23.447Z,95657.94
2023-02-22T23:12:09.360Z,95657.59
2023-02-22T23:14:44.469Z,95660.06
2023-02-22T23:17:27.118Z,95655.28
2023-02-22T23:19:55.320Z,95661.56
2023-02-22T23:22:25.269Z,95658.16
2023-02-22T23:24:52.771Z,95653.84
2023-02-22T23:27:20.368Z,95648.44
2023-02-22T23:29:49.930Z,95652.94
2023-02-22T23:32:17.557Z,95651.66
2023-02-22T23:34:45.128Z,95650.63
2023-02-22T23:37:14.403Z,95652.03
2023-02-22T23:39:42.569Z,95644.53
2023-02-22T23:42:10.057Z,95644.88
2023-02-22T23:44:37.637Z,95653.03
2023-02-22T23:47:05.227Z,95648.41
2023-02-22T23:49:39.055Z,95648.41
2023-02-22T23:52:06.929Z,95651.25
2023-02-22T23:54:40.592Z,95650.41
2023-02-22T23:57:09.149Z,95650.78
2023-02-22T23:59:40.684Z,95642.72
